createdAt,value
2023-03-29T00:00:21.909Z,8.98
2023-03-29T00:02:48.966Z,5.97
2023-03-29T00:05:25.725Z,5.90
2023-03-29T00:07:54.374Z,5.00
2023-03-29T00:10:24.983Z,8.02
2023-03-29T00:12:52.681Z,7.07
2023-03-29T00:15:20.175Z,5.35
2023-03-29T00:17:47.020Z,7.32
2023-03-29T00:20:14.265Z,6.30
2023-03-29T00:22:46.699Z,6.38
2023-03-29T00:25:14.142Z,5.70
2023-03-29T00:27:41.230Z,5.60
2023-03-29T00:30:10.282Z,6.78
2023-03-29T00:32:37.854Z,5.60
2023-03-29T00:35:07.847Z,6.50
2023-03-29T00:37:34.671Z,5.68
2023-03-29T00:40:01.565Z,7.55
2023-03-29T00:42:28.629Z,6.38
2023-03-29T00:45:01.953Z,6.68
2023-03-29T00:47:38.487Z,6.67
2023-03-29T00:50:12.919Z,6.57
2023-03-29T00:52:42.527Z,5.97
2023-03-29T00:55:15.872Z,6.65
2023-03-29T00:57:46.868Z,9.27
2023-03-29T01:00:21.009Z,5.93
2023-03-29T01:02:54.467Z,5.78
2023-03-29T01:05:32.737Z,5.10
2023-03-29T01:08:05.439Z,5.03
2023-03-29T01:10:41.530Z,5.60
2023-03-29T01:13:15.201Z,6.30
2023-03-29T01:15:45.651Z,6.28
2023-03-29T01:18:12.776Z,12.60
2023-03-29T01:21:09.022Z,9.25
2023-03-29T01:24:07.108Z,11.52
2023-03-29T01:26:57.214Z,7.10
2023-03-29T01:29:50.166Z,14.45
2023-03-29T01:32:22.738Z,5.97
2023-03-29T01:34:59.974Z,5.60
2023-03-29T01:37:29.056Z,4.88
2023-03-29T01:39:55.793Z,5.07
2023-03-29T01:42:58.051Z,4.72
2023-03-29T01:45:31.827Z,5.32
2023-03-29T01:48:07.440Z,4.55
2023-03-29T01:50:58.622Z,5.18
2023-03-29T01:53:45.917Z,4.70
2023-03-29T01:56:16.503Z,4.95
2023-03-29T01:58:46.974Z,5.07
2023-03-29T02:01:19.508Z,4.90
2023-03-29T02:03:51.154Z,5.35
2023-03-29T02:06:21.415Z,4.93
2023-03-29T02:08:48.846Z,6.13
2023-03-29T02:11:16.373Z,4.50
2023-03-29T02:13:43.115Z,4.40
2023-03-29T02:16:15.168Z,4.60
2023-03-29T02:18:46.908Z,5.32
2023-03-29T02:21:24.271Z,4.90
2023-03-29T02:23:54.984Z,4.38
2023-03-29T02:26:24.344Z,4.32
2023-03-29T02:28:52.997Z,5.72
2023-03-29T02:31:54.616Z,5.20
2023-03-29T02:34:26.925Z,6.32
2023-03-29T02:37:00.993Z,5.40
2023-03-29T02:39:32.250Z,5.00
2023-03-29T02:41:59.657Z,4.10
2023-03-29T02:44:30.807Z,5.75
2023-03-29T02:47:03.817Z,6.43
2023-03-29T02:49:31.061Z,4.60
2023-03-29T02:52:07.615Z,5.22
2023-03-29T02:54:37.993Z,5.35
2023-03-29T02:57:08.658Z,5.13
2023-03-29T02:59:36.328Z,5.20
2023-03-29T03:02:03.423Z,5.47
2023-03-29T03:04:31.805Z,4.78
2023-03-29T03:06:58.523Z,5.85
2023-03-29T03:09:27.464Z,6.63
2023-03-29T03:11:54.558Z,5.85
2023-03-29T03:14:22.989Z,6.00
2023-03-29T03:16:50.571Z,5.38
2023-03-29T03:19:18.026Z,6.55
2023-03-29T03:21:45.625Z,5.68
2023-03-29T03:24:16.094Z,6.47
2023-03-29T03:26:44.925Z,5.72
2023-03-29T03:29:12.204Z,5.18
2023-03-29T03:31:41.438Z,5.90
2023-03-29T03:34:09.053Z,6.20
2023-03-29T03:36:36.070Z,5.20
2023-03-29T03:39:06.010Z,7.10
2023-03-29T03:41:34.338Z,6.00
2023-03-29T03:44:01.213Z,7.00
2023-03-29T03:46:29.488Z,6.60
2023-03-29T03:48:56.730Z,6.38
2023-03-29T03:51:23.418Z,5.90
2023-03-29T03:53:50.116Z,6.88
2023-03-29T03:56:18.087Z,8.95
2023-03-29T03:58:44.866Z,6.00
2023-03-29T04:01:11.958Z,6.07
2023-03-29T04:03:39.490Z,5.68
2023-03-29T04:06:06.730Z,6.72
2023-03-29T04:08:33.486Z,6.60
2023-03-29T04:11:00.599Z,7.07
2023-03-29T04:13:27.980Z,6.93
2023-03-29T04:15:58.792Z,6.13
2023-03-29T04:18:27.836Z,6.15
2023-03-29T04:20:54.601Z,5.63
2023-03-29T04:23:21.332Z,7.15
2023-03-29T04:25:48.458Z,6.47
2023-03-29T04:28:15.535Z,6.35
2023-03-29T04:30:42.506Z,6.80
2023-03-29T04:33:09.770Z,6.30
2023-03-29T04:35:36.611Z,6.85
2023-03-29T04:38:04.537Z,5.80
2023-03-29T04:40:35.810Z,5.68
2023-03-29T04:43:02.698Z,5.82
2023-03-29T04:45:29.535Z,6.97
2023-03-29T04:47:59.880Z,5.35
2023-03-29T04:50:26.752Z,6.28
2023-03-29T04:52:53.530Z,5.95
2023-03-29T04:55:20.709Z,5.72
2023-03-29T04:57:47.411Z,6.13
2023-03-29T05:00:15.400Z,4.90
2023-03-29T05:02:44.517Z,5.85
2023-03-29T05:05:11.837Z,5.20
2023-03-29T05:07:38.819Z,5.53
2023-03-29T05:10:06.264Z,6.07
2023-03-29T05:12:33.198Z,6.22
2023-03-29T05:14:59.955Z,5.35
2023-03-29T05:17:27.840Z,5.32
2023-03-29T05:19:55.102Z,4.47
2023-03-29T05:22:21.849Z,5.07
2023-03-29T05:24:49.061Z,5.93
2023-03-29T05:27:17.291Z,5.63
2023-03-29T05:29:45.017Z,4.65
2023-03-29T05:32:13.795Z,4.80
2023-03-29T05:34:40.705Z,6.25
2023-03-29T05:37:07.764Z,4.57
2023-03-29T05:39:37.566Z,4.72
2023-03-29T05:42:04.824Z,5.40
2023-03-29T05:44:31.656Z,5.30
2023-03-29T05:46:58.661Z,4.90
2023-03-29T05:49:25.694Z,7.22
2023-03-29T05:51:57.013Z,5.35
2023-03-29T05:54:24.672Z,4.38
2023-03-29T05:56:52.017Z,5.10
2023-03-29T05:59:19.864Z,4.82
2023-03-29T06:01:50.151Z,5.32
2023-03-29T06:04:18.262Z,4.15
2023-03-29T06:06:45.061Z,4.38
2023-03-29T06:09:12.360Z,4.45
2023-03-29T06:11:39.376Z,4.32
2023-03-29T06:14:06.442Z,4.75
2023-03-29T06:16:33.785Z,4.93
2023-03-29T06:19:00.866Z,4.70
2023-03-29T06:21:28.634Z,4.63
2023-03-29T06:23:56.005Z,4.07
2023-03-29T06:26:22.850Z,7.53
2023-03-29T06:28:52.113Z,4.78
2023-03-29T06:31:20.149Z,4.13
2023-03-29T06:33:47.361Z,4.40
2023-03-29T06:36:16.328Z,4.05
2023-03-29T06:38:45.838Z,4.45
2023-03-29T06:41:12.541Z,4.90
2023-03-29T06:43:39.473Z,4.30
2023-03-29T06:46:12.338Z,3.88
2023-03-29T06:48:39.923Z,3.78
2023-03-29T06:51:07.779Z,5.38
2023-03-29T06:53:37.594Z,3.83
2023-03-29T06:56:09.470Z,3.63
2023-03-29T06:58:37.015Z,4.03
2023-03-29T07:01:04.866Z,4.93
2023-03-29T07:03:34.067Z,3.70
2023-03-29T07:06:04.132Z,4.13
2023-03-29T07:08:35.574Z,3.88
2023-03-29T07:11:03.720Z,6.18
2023-03-29T07:13:33.110Z,3.38
2023-03-29T07:16:00.335Z,3.42
2023-03-29T07:18:27.263Z,3.47
2023-03-29T07:20:54.344Z,5.05
2023-03-29T07:23:21.872Z,5.80
2023-03-29T07:25:49.319Z,3.25
2023-03-29T07:28:16.090Z,4.25
2023-03-29T07:30:43.025Z,3.97
2023-03-29T07:33:11.210Z,4.00
2023-03-29T07:35:38.505Z,3.83
2023-03-29T07:38:08.190Z,2.97
2023-03-29T07:40:35.290Z,3.45
2023-03-29T07:43:07.459Z,3.65
2023-03-29T07:45:34.462Z,3.97
2023-03-29T07:48:02.216Z,3.65
2023-03-29T07:50:32.595Z,3.45
2023-03-29T07:53:01.322Z,4.68
2023-03-29T07:55:28.772Z,3.45
2023-03-29T07:57:55.714Z,2.90
2023-03-29T08:00:25.286Z,3.50
2023-03-29T08:02:52.688Z,2.63
2023-03-29T08:05:37.902Z,3.30
2023-03-29T08:08:10.131Z,3.58
2023-03-29T08:10:41.842Z,3.75
2023-03-29T08:13:11.846Z,4.78
2023-03-29T08:15:40.262Z,4.95
2023-03-29T08:18:08.287Z,4.28
2023-03-29T08:20:35.419Z,4.70
2023-03-29T08:23:02.669Z,5.60
2023-03-29T08:25:29.640Z,5.25
2023-03-29T08:27:56.924Z,5.45
2023-03-29T08:30:28.162Z,5.80
2023-03-29T08:32:55.479Z,6.45
2023-03-29T08:35:22.814Z,5.90
2023-03-29T08:37:49.972Z,5.72
2023-03-29T08:40:24.814Z,5.60
2023-03-29T08:43:15.863Z,7.15
2023-03-29T08:46:02.283Z,4.25
2023-03-29T08:48:37.618Z,4.47
2023-03-29T08:51:34.724Z,6.05
2023-03-29T08:54:14.619Z,5.32
2023-03-29T08:56:44.932Z,4.55
2023-03-29T08:59:21.191Z,5.28
2023-03-29T09:01:50.534Z,5.43
2023-03-29T09:04:25.728Z,4.45
2023-03-29T09:06:52.968Z,5.82
2023-03-29T09:09:22.853Z,5.00
2023-03-29T09:12:04.168Z,4.80
2023-03-29T09:14:45.134Z,2.90
2023-03-29T09:17:53.893Z,3.70
2023-03-29T09:20:23.084Z,3.53
2023-03-29T09:23:20.059Z,3.70
2023-03-29T09:26:01.000Z,3.67
2023-03-29T09:28:41.202Z,4.00
2023-03-29T09:31:16.755Z,3.55
2023-03-29T09:33:50.690Z,3.30
2023-03-29T09:36:24.121Z,3.80
2023-03-29T09:38:54.642Z,3.50
2023-03-29T09:41:28.054Z,3.25
2023-03-29T09:43:57.922Z,3.20
2023-03-29T09:46:44.149Z,3.30
2023-03-29T09:49:33.431Z,3.30
2023-03-29T09:52:05.982Z,3.17
2023-03-29T09:54:33.948Z,3.22
2023-03-29T09:57:01.285Z,3.20
2023-03-29T09:59:29.356Z,3.30
2023-03-29T10:02:10.331Z,3.15
2023-03-29T10:04:38.667Z,3.08
2023-03-29T10:07:19.480Z,3.45
2023-03-29T10:09:47.651Z,3.38
2023-03-29T10:12:16.179Z,4.03
2023-03-29T10:14:49.861Z,3.53
2023-03-29T10:17:29.662Z,4.47
2023-03-29T10:19:58.592Z,3.20
2023-03-29T10:22:35.283Z,2.85
2023-03-29T10:25:03.018Z,2.95
2023-03-29T10:27:32.388Z,3.20
2023-03-29T10:30:01.180Z,3.08
2023-03-29T10:32:34.968Z,3.30
2023-03-29T10:35:25.192Z,3.58
2023-03-29T10:37:56.058Z,3.05
2023-03-29T10:40:32.316Z,2.53
2023-03-29T10:43:03.979Z,3.40
2023-03-29T10:45:35.337Z,3.45
2023-03-29T10:48:05.336Z,2.90
2023-03-29T10:50:35.572Z,3.65
2023-03-29T10:53:03.312Z,3.00
2023-03-29T10:55:43.630Z,2.80
2023-03-29T10:58:19.592Z,3.20
2023-03-29T11:00:57.303Z,3.05
2023-03-29T11:03:51.247Z,3.17
2023-03-29T11:06:41.401Z,3.00
2023-03-29T11:09:23.564Z,3.03
2023-03-29T11:12:24.934Z,3.63
2023-03-29T11:15:14.797Z,3.00
2023-03-29T11:17:53.715Z,2.70
2023-03-29T11:20:29.292Z,2.85
2023-03-29T11:23:16.871Z,3.00
2023-03-29T11:25:56.311Z,3.40
2023-03-29T11:28:38.044Z,2.80
2023-03-29T11:31:10.640Z,3.05
2023-03-29T11:33:52.986Z,3.00
2023-03-29T11:36:39.048Z,3.83
2023-03-29T11:39:30.061Z,2.88
2023-03-29T11:42:07.936Z,3.00
2023-03-29T11:44:36.850Z,4.85
2023-03-29T11:47:10.706Z,2.80
2023-03-29T11:49:43.445Z,3.42
2023-03-29T11:52:24.556Z,2.55
2023-03-29T11:55:18.450Z,2.78
2023-03-29T11:57:57.030Z,2.40
2023-03-29T12:00:33.155Z,2.75
2023-03-29T12:03:37.264Z,2.83
2023-03-29T12:06:19.282Z,2.60
2023-03-29T12:08:57.380Z,2.80
2023-03-29T12:11:38.137Z,2.80
2023-03-29T12:14:36.128Z,3.60
2023-03-29T12:17:10.524Z,2.85
2023-03-29T12:19:51.416Z,3.05
2023-03-29T12:22:21.467Z,2.63
2023-03-29T12:24:52.661Z,4.00
2023-03-29T12:27:26.550Z,2.75
2023-03-29T12:30:15.107Z,2.90
2023-03-29T12:32:51.270Z,2.85
2023-03-29T12:35:30.494Z,2.70
2023-03-29T12:38:19.639Z,2.67
2023-03-29T12:40:48.960Z,4.20
2023-03-29T12:43:24.440Z,2.92
2023-03-29T12:46:10.255Z,2.45
2023-03-29T12:48:40.619Z,3.45
2023-03-29T12:51:23.550Z,2.42
2023-03-29T12:53:56.093Z,2.50
2023-03-29T12:56:37.102Z,2.67
2023-03-29T12:59:27.975Z,2.80
2023-03-29T13:02:10.832Z,2.60
2023-03-29T13:04:44.718Z,2.85
2023-03-29T13:07:25.722Z,2.72
2023-03-29T13:09:55.735Z,2.50
2023-03-29T13:12:32.968Z,2.53
2023-03-29T13:15:03.928Z,2.70
2023-03-29T13:17:49.496Z,2.80
2023-03-29T13:20:40.446Z,2.65
2023-03-29T13:23:32.481Z,3.00
2023-03-29T13:26:23.567Z,4.70
2023-03-29T13:29:15.172Z,2.47
2023-03-29T13:32:15.869Z,4.38
2023-03-29T13:34:53.376Z,2.63
2023-03-29T13:37:39.015Z,2.75
2023-03-29T13:40:28.593Z,4.25
2023-03-29T13:43:22.359Z,2.88
2023-03-29T13:45:58.545Z,2.67
2023-03-29T13:48:38.665Z,2.33
2023-03-29T13:51:29.838Z,2.50
2023-03-29T13:54:03.496Z,2.60
2023-03-29T13:56:52.573Z,2.78
2023-03-29T13:59:25.853Z,3.13
2023-03-29T14:02:03.069Z,2.80
2023-03-29T14:04:44.284Z,2.30
2023-03-29T14:07:14.886Z,2.63
2023-03-29T14:09:49.004Z,2.67
2023-03-29T14:14:58.364Z,2.95
2023-03-29T14:17:27.322Z,3.00
2023-03-29T14:19:58.289Z,3.72
2023-03-29T14:22:31.162Z,3.35
2023-03-29T14:25:02.612Z,2.65
2023-03-29T14:27:32.237Z,2.85
2023-03-29T14:29:59.300Z,3.17
2023-03-29T14:32:31.462Z,3.50
2023-03-29T14:34:58.997Z,3.28
2023-03-29T14:37:28.633Z,3.63
2023-03-29T14:39:56.742Z,2.38
2023-03-29T14:42:29.087Z,2.00
2023-03-29T14:45:06.480Z,2.42
2023-03-29T14:47:35.177Z,2.38
2023-03-29T14:50:02.744Z,2.40
2023-03-29T14:52:31.270Z,2.38
2023-03-29T14:55:04.489Z,2.85
2023-03-29T14:57:36.671Z,2.55
2023-03-29T15:00:20.999Z,5.85
2023-03-29T15:02:55.353Z,2.53
2023-03-29T15:05:44.667Z,2.50
2023-03-29T15:08:19.988Z,2.83
2023-03-29T15:10:47.501Z,2.35
2023-03-29T15:13:24.640Z,2.00
2023-03-29T15:15:57.020Z,2.20
2023-03-29T15:18:36.347Z,2.08
2023-03-29T15:21:03.794Z,2.47
2023-03-29T15:24:01.345Z,2.63
2023-03-29T15:26:38.021Z,2.45
2023-03-29T15:29:12.996Z,2.28
2023-03-29T15:31:42.502Z,2.60
2023-03-29T15:34:24.122Z,2.38
2023-03-29T15:36:52.319Z,2.25
2023-03-29T15:39:20.117Z,2.35
2023-03-29T15:41:49.486Z,4.05
2023-03-29T15:44:18.316Z,2.78
2023-03-29T15:46:45.105Z,3.15
2023-03-29T15:49:12.953Z,2.63
2023-03-29T15:51:41.002Z,2.92
2023-03-29T15:54:09.274Z,2.92
2023-03-29T15:56:44.470Z,3.97
2023-03-29T15:59:12.395Z,2.92
2023-03-29T16:01:39.403Z,2.92
2023-03-29T16:04:21.237Z,2.85
2023-03-29T16:06:50.253Z,2.47
2023-03-29T16:09:17.285Z,2.92
2023-03-29T16:11:46.389Z,2.65
2023-03-29T16:14:12.965Z,2.67
2023-03-29T16:16:39.720Z,2.40
2023-03-29T16:19:06.819Z,2.83
2023-03-29T16:21:33.542Z,3.13
2023-03-29T16:24:00.371Z,2.40
2023-03-29T16:26:27.656Z,3.15
2023-03-29T16:28:54.392Z,2.92
2023-03-29T16:31:21.096Z,3.55
2023-03-29T16:33:48.539Z,3.13
2023-03-29T16:36:15.244Z,2.60
2023-03-29T16:38:42.097Z,3.33
2023-03-29T16:41:17.311Z,3.25
2023-03-29T16:43:44.455Z,3.83
2023-03-29T16:46:12.322Z,3.00
2023-03-29T16:48:39.444Z,4.18
2023-03-29T16:51:07.151Z,3.53
2023-03-29T16:53:37.674Z,2.65
2023-03-29T16:56:05.130Z,3.17
2023-03-29T16:58:32.450Z,4.43
2023-03-29T17:01:07.788Z,4.72
2023-03-29T17:03:36.303Z,3.65
2023-03-29T17:06:04.635Z,4.47
2023-03-29T17:08:33.799Z,4.88
2023-03-29T17:11:01.124Z,4.00
2023-03-29T17:13:28.240Z,5.00
2023-03-29T17:15:56.302Z,4.28
2023-03-29T17:18:26.443Z,5.38
2023-03-29T17:20:58.863Z,4.82
2023-03-29T17:23:27.520Z,4.80
2023-03-29T17:26:01.741Z,4.70
2023-03-29T17:28:29.534Z,4.93
2023-03-29T17:30:57.421Z,4.72
2023-03-29T17:33:28.607Z,6.07
2023-03-29T17:35:56.227Z,4.63
2023-03-29T17:38:23.079Z,4.95
2023-03-29T17:40:54.416Z,4.68
2023-03-29T17:43:33.290Z,4.10
2023-03-29T17:46:00.321Z,4.85
2023-03-29T17:48:28.455Z,4.80
2023-03-29T17:50:57.183Z,5.63
2023-03-29T17:53:24.443Z,5.97
2023-03-29T17:55:55.051Z,5.30
2023-03-29T17:58:34.968Z,5.57
2023-03-29T18:01:10.822Z,6.10
2023-03-29T18:03:38.688Z,6.43
2023-03-29T18:06:53.864Z,6.80
2023-03-29T18:09:00.568Z,6.50
2023-03-29T18:11:42.846Z,4.30
2023-03-29T18:14:16.829Z,6.40
2023-03-29T18:16:43.616Z,4.80
2023-03-29T18:23:21.057Z,6.10
2023-03-29T18:29:39.296Z,4.78
2023-03-29T18:32:30.989Z,6.63
2023-03-29T18:35:28.427Z,5.78
2023-03-29T18:37:57.074Z,4.93
2023-03-29T18:40:26.509Z,5.10
2023-03-29T18:45:47.723Z,5.57
2023-03-29T18:48:45.560Z,6.00
2023-03-29T18:51:28.777Z,6.10
2023-03-29T18:53:59.846Z,6.40
2023-03-29T18:56:34.843Z,7.88
2023-03-29T18:59:05.570Z,6.15
2023-03-29T19:01:33.363Z,6.85
2023-03-29T19:04:00.503Z,7.82
2023-03-29T19:06:52.785Z,6.97
2023-03-29T19:09:18.324Z,7.60
2023-03-29T19:15:22.816Z,7.45
2023-03-29T19:17:49.937Z,9.23
2023-03-29T19:20:18.508Z,8.07
2023-03-29T19:22:45.781Z,8.80
2023-03-29T19:25:12.691Z,7.00
2023-03-29T19:27:44.494Z,7.32
2023-03-29T19:30:11.673Z,8.10
2023-03-29T19:32:38.712Z,8.07
2023-03-29T19:35:07.328Z,9.68
2023-03-29T19:38:09.519Z,9.82
2023-03-29T19:40:43.230Z,8.05
2023-03-29T19:43:14.438Z,11.30
2023-03-29T19:45:41.165Z,10.77
2023-03-29T19:50:46.590Z,9.52
2023-03-29T19:53:13.649Z,11.45
2023-03-29T19:55:42.553Z,9.30
2023-03-29T19:58:09.653Z,11.18
2023-03-29T20:00:38.895Z,10.65
2023-03-29T20:03:09.505Z,12.23
2023-03-29T20:05:38.969Z,12.05
2023-03-29T20:08:35.818Z,12.00
2023-03-29T20:11:04.138Z,11.90
2023-03-29T20:13:38.250Z,11.85
2023-03-29T20:16:08.315Z,11.95
2023-03-29T20:18:35.084Z,10.98
2023-03-29T20:21:02.265Z,13.18
2023-03-29T20:23:30.129Z,12.93
2023-03-29T20:25:57.418Z,11.05
2023-03-29T20:28:25.141Z,14.77
2023-03-29T20:30:52.924Z,10.70
2023-03-29T20:33:20.702Z,13.23
2023-03-29T20:35:49.346Z,14.70
2023-03-29T20:38:16.397Z,12.82
2023-03-29T20:40:43.342Z,12.18
2023-03-29T20:43:13.462Z,14.40
2023-03-29T20:45:52.622Z,9.98
2023-03-29T20:48:24.864Z,11.98
2023-03-29T20:50:52.356Z,12.05
2023-03-29T20:53:20.586Z,13.43
2023-03-29T20:55:48.979Z,16.80
2023-03-29T20:58:16.100Z,14.48
2023-03-29T21:00:43.677Z,13.70
2023-03-29T21:03:11.241Z,14.43
2023-03-29T21:05:39.125Z,17.85
2023-03-29T21:08:06.128Z,14.77
2023-03-29T21:10:32.996Z,15.25
2023-03-29T21:13:00.549Z,12.93
2023-03-29T21:15:29.505Z,15.07
2023-03-29T21:17:56.920Z,14.77
2023-03-29T21:20:24.705Z,14.23
2023-03-29T21:22:51.720Z,16.77
2023-03-29T21:25:19.164Z,15.93
2023-03-29T21:27:46.600Z,16.35
2023-03-29T21:30:13.716Z,14.88
2023-03-29T21:32:41.298Z,14.27
2023-03-29T21:35:08.920Z,17.08
2023-03-29T21:37:35.753Z,18.08
2023-03-29T21:40:06.054Z,16.23
2023-03-29T21:42:34.122Z,18.52
2023-03-29T21:45:01.065Z,15.00
2023-03-29T21:47:28.053Z,16.65
2023-03-29T21:49:54.787Z,11.45
2023-03-29T21:52:21.680Z,11.95
2023-03-29T21:54:48.645Z,14.50
2023-03-29T21:57:15.530Z,12.95
2023-03-29T21:59:42.472Z,11.35
2023-03-29T22:02:09.621Z,12.75
2023-03-29T22:04:37.692Z,13.88
2023-03-29T22:07:05.903Z,12.95
2023-03-29T22:09:35.037Z,14.25
2023-03-29T22:12:03.052Z,11.27
2023-03-29T22:14:31.806Z,11.85
2023-03-29T22:16:58.698Z,14.13
2023-03-29T22:19:25.812Z,12.30
2023-03-29T22:21:52.585Z,10.30
2023-03-29T22:24:19.445Z,10.80
2023-03-29T22:26:46.643Z,10.23
2023-03-29T22:29:13.352Z,10.95
2023-03-29T22:31:40.410Z,12.32
2023-03-29T22:34:07.576Z,10.40
2023-03-29T22:36:36.987Z,12.27
2023-03-29T22:39:05.056Z,10.90
2023-03-29T22:41:31.800Z,21.90
2023-03-29T22:44:01.213Z,10.35
2023-03-29T22:46:28.441Z,11.48
2023-03-29T22:48:55.799Z,11.82
2023-03-29T22:51:22.590Z,15.50
2023-03-29T22:53:49.448Z,15.48
2023-03-29T22:56:17.251Z,16.77
2023-03-29T22:58:44.477Z,14.70
2023-03-29T23:01:12.030Z,11.73
2023-03-29T23:03:39.088Z,14.02
2023-03-29T23:06:07.193Z,10.48
2023-03-29T23:08:35.368Z,9.73
2023-03-29T23:11:02.631Z,11.98
2023-03-29T23:13:30.119Z,10.52
2023-03-29T23:15:59.358Z,9.38
2023-03-29T23:18:28.832Z,10.68
2023-03-29T23:20:57.274Z,10.38
2023-03-29T23:23:25.707Z,10.68
2023-03-29T23:25:53.701Z,10.02
2023-03-29T23:28:23.717Z,8.18
2023-03-29T23:31:11.693Z,7.78
2023-03-29T23:33:42.780Z,9.88
2023-03-29T23:36:13.896Z,9.65
2023-03-29T23:38:42.338Z,9.43
2023-03-29T23:41:10.960Z,9.50
2023-03-29T23:43:43.288Z,9.27
2023-03-29T23:46:13.129Z,11.13
2023-03-29T23:48:40.094Z,8.73
2023-03-29T23:51:08.366Z,8.50
2023-03-29T23:53:35.106Z,9.07
2023-03-29T23:56:05.066Z,8.65
2023-03-29T23:58:34.938Z,11.15
